If you wish to contribute or participate in the discussions about articles you are invited to join SKYbrary as a registered user

 Actions

Ingeniero Aeronautico Ambrosio Taravella International Airport

From SKYbrary Wiki

SACO
Airport
ICAO: SACO – IATA: COR
Summary
Name Ingeniero Aeronautico Ambrosio Taravella International Airport
Region South America and Caribbean
Territory Argentina AR.gif
Location Cordoba, Cordoba
Serving Cordoba
Elevation 488.899 m
1,604 ft
1,604 ft488.899 m
Type medium airport
Coordinates 31° 19' 25.03" S, 64° 12' 28.63" W
Runways
Designator Length Width Surface ROPS
18/36 3200 m10,498.688 ft
45 m147.638 ft
CON yes/yes
5/23 2200 m7,217.848 ft
45 m147.638 ft
ASP yes/yes


METAR
Observation SACO 190500Z 36013KT CAVOK 16/03 Q1001 NOSIG
Station Cordoba Aerodrome
Date/Time 19 September 2019 05:00:00
Wind direction 360°
Wind speed 13 kts
Lowest cloud amount clouds and visibility OK
Temperature 16°C
Dew point 3°C
Humidity 41%
QNH 1001 hPa
Weather condition n/a

Airport, more commonly known as Pajas Blancas, is 9km 4.86 nm
9,000 m
29,527.559 ft
north of the centre of the city of Cordoba, Argentina.

Climatology

Humid subtropical climate (Köppen climate classification Cwa).

Maps

Terrain

Loading map...

Airport Layout

Loading map...


Accidents & Serious Incidents at or in vicinity of SACO

None on SKYbrary